This is the latest recevied weather packets stored in our database for station/object EFOU. If no packets are shown the sender has not sent any weather packets the latest 10 day(s).
| Time | Temp. | Humidity | Pressure | Rain* | Wind** | Luminosity | Snow |
|---|---|---|---|---|---|---|---|
| 1778003235 | 5.56° C | 62% | 999 hPa | - | - | - | - |
| 1778002035 | 5.56° C | 63% | 998.9 hPa | - | - | - | - |
| 1778000835 | 5.56° C | 67% | 998.8 hPa | - | - | - | - |
| 1777999635 | 5.56° C | 68% | 998.7 hPa | - | - | - | - |
| 1777998435 | 6.11° C | 65% | 998.4 hPa | - | - | - | - |
| 1777997235 | 6.11° C | 65% | 998.3 hPa | - | - | - | - |
| 1777996035 | 6.67° C | 64% | 998.2 hPa | - | - | - | - |
| 1777994835 | 6.67° C | 61% | 998 hPa | - | - | - | - |
| 1777993635 | 6.67° C | 61% | 997.8 hPa | - | - | - | - |
| 1777992435 | 6.67° C | 61% | 997.6 hPa | - | - | - | - |
| 1777991234 | 7.22° C | 60% | 997.5 hPa | - | - | - | - |
| 1777990034 | 6.11° C | 64% | 997.4 hPa | - | - | - | - |
| 1777988834 | 7.22° C | 58% | 997.2 hPa | - | - | - | - |
| 1777987634 | 6.67° C | 58% | 997 hPa | - | - | - | - |
| 1777986434 | 6.67° C | 58% | 996.9 hPa | - | - | - | - |
| 1777985234 | 6.67° C | 57% | 996.6 hPa | - | - | - | - |
| 1777984034 | 6.11° C | 55% | 996.5 hPa | - | - | - | - |
| 1777982834 | 6.11° C | 59% | 996.5 hPa | - | - | - | - |
| 1777981634 | 6.67° C | 60% | 996.2 hPa | - | - | - | - |
| 1777980434 | 6.11° C | 63% | 995.9 hPa | - | - | - | - |
| 1777979234 | 5.56° C | 68% | 995.8 hPa | - | - | - | - |
| 1777978034 | 5.56° C | 71% | 995.5 hPa | - | - | - | - |
| 1777976833 | 5° C | 74% | 995.3 hPa | - | - | - | - |
| 1777975633 | 4.44° C | 75% | 995.1 hPa | - | - | - | - |
| 1777974433 | 3.89° C | 82% | 995 hPa | - | - | - | - |
* Rain since midnight (hover to see other rain measurements)
** Current wind speed in m/s (hover to see current wind gust speed)